sensor_id;sensor_type;location;lat;lon;timestamp;pressure;altitude;pressure_sealevel;temperature;humidity
41078;BME280;26823;42.662;23.352;2023-05-11T00:00:27;94993.63;;;8.35;81.84
41078;BME280;26823;42.662;23.352;2023-05-11T00:02:52;94992.75;;;8.29;81.39
41078;BME280;26823;42.662;23.352;2023-05-11T00:05:18;94980.56;;;8.22;81.98
41078;BME280;26823;42.662;23.352;2023-05-11T00:07:44;95000.59;;;8.31;81.60
41078;BME280;26823;42.662;23.352;2023-05-11T00:10:09;95001.69;;;8.35;82.25
41078;BME280;26823;42.662;23.352;2023-05-11T00:12:35;95001.13;;;8.33;82.09
41078;BME280;26823;42.662;23.352;2023-05-11T00:15:01;94982.53;;;8.31;81.19
41078;BME280;26823;42.662;23.352;2023-05-11T00:17:26;94999.84;;;8.41;81.50
41078;BME280;26823;42.662;23.352;2023-05-11T00:19:52;94992.03;;;8.44;81.59
41078;BME280;26823;42.662;23.352;2023-05-11T00:22:17;95007.09;;;8.35;81.44
41078;BME280;26823;42.662;23.352;2023-05-11T00:24:46;94993.78;;;8.23;82.04
41078;BME280;26823;42.662;23.352;2023-05-11T00:27:11;95005.72;;;8.32;82.51
41078;BME280;26823;42.662;23.352;2023-05-11T00:29:37;94964.31;;;8.06;82.64
41078;BME280;26823;42.662;23.352;2023-05-11T00:32:02;94997.66;;;8.38;82.47
41078;BME280;26823;42.662;23.352;2023-05-11T00:34:27;95004.91;;;8.32;82.31
41078;BME280;26823;42.662;23.352;2023-05-11T00:36:53;94998.91;;;8.20;82.47
41078;BME280;26823;42.662;23.352;2023-05-11T00:39:18;95001.84;;;8.18;83.05
41078;BME280;26823;42.662;23.352;2023-05-11T00:41:44;95006.72;;;8.21;83.41
41078;BME280;26823;42.662;23.352;2023-05-11T00:44:09;94974.19;;;7.95;83.28
41078;BME280;26823;42.662;23.352;2023-05-11T00:46:36;95002.06;;;8.11;83.51
41078;BME280;26823;42.662;23.352;2023-05-11T00:49:02;95007.97;;;8.08;83.27
41078;BME280;26823;42.662;23.352;2023-05-11T00:51:27;95005.56;;;8.12;83.71
41078;BME280;26823;42.662;23.352;2023-05-11T00:53:53;95008.81;;;8.14;83.94
41078;BME280;26823;42.662;23.352;2023-05-11T00:56:18;95010.72;;;8.13;83.88
41078;BME280;26823;42.662;23.352;2023-05-11T00:58:44;94997.09;;;7.98;84.36
41078;BME280;26823;42.662;23.352;2023-05-11T01:01:10;94994.69;;;7.96;83.79
41078;BME280;26823;42.662;23.352;2023-05-11T01:03:36;95012.84;;;8.11;83.38
41078;BME280;26823;42.662;23.352;2023-05-11T01:06:09;95003.97;;;8.11;84.37
41078;BME280;26823;42.662;23.352;2023-05-11T01:08:40;95006.09;;;8.09;84.10
41078;BME280;26823;42.662;23.352;2023-05-11T01:14:33;95002.59;;;8.08;84.16
41078;BME280;26823;42.662;23.352;2023-05-11T01:17:05;95011.28;;;8.21;83.30
41078;BME280;26823;42.662;23.352;2023-05-11T01:19:43;95008.78;;;8.09;83.26
41078;BME280;26823;42.662;23.352;2023-05-11T01:28:48;95007.97;;;8.08;82.91
41078;BME280;26823;42.662;23.352;2023-05-11T01:31:18;94987.09;;;7.88;83.96
41078;BME280;26823;42.662;23.352;2023-05-11T01:33:53;95010.06;;;8.01;83.46
41078;BME280;26823;42.662;23.352;2023-05-11T01:36:24;95011.84;;;7.90;84.35
41078;BME280;26823;42.662;23.352;2023-05-11T01:38:53;94997.59;;;7.90;84.89
41078;BME280;26823;42.662;23.352;2023-05-11T01:41:21;94978.06;;;7.72;84.53
41078;BME280;26823;42.662;23.352;2023-05-11T01:43:52;94971.47;;;7.58;84.40
41078;BME280;26823;42.662;23.352;2023-05-11T01:46:20;95009.66;;;7.82;83.97
41078;BME280;26823;42.662;23.352;2023-05-11T01:48:50;95007.00;;;7.87;84.28
41078;BME280;26823;42.662;23.352;2023-05-11T01:51:17;95002.94;;;7.84;83.42
41078;BME280;26823;42.662;23.352;2023-05-11T01:53:44;95013.44;;;7.86;84.09
41078;BME280;26823;42.662;23.352;2023-05-11T01:56:11;95014.84;;;7.61;83.95
41078;BME280;26823;42.662;23.352;2023-05-11T01:58:37;95007.88;;;7.65;83.73
41078;BME280;26823;42.662;23.352;2023-05-11T02:01:05;95016.09;;;7.81;84.21
41078;BME280;26823;42.662;23.352;2023-05-11T02:03:34;95007.75;;;7.82;82.93
41078;BME280;26823;42.662;23.352;2023-05-11T02:06:03;95004.31;;;7.60;83.63
41078;BME280;26823;42.662;23.352;2023-05-11T02:08:30;95009.47;;;7.61;83.32
41078;BME280;26823;42.662;23.352;2023-05-11T02:10:57;95008.84;;;7.54;83.36
41078;BME280;26823;42.662;23.352;2023-05-11T02:13:23;95000.84;;;7.59;83.11
41078;BME280;26823;42.662;23.352;2023-05-11T02:15:51;94997.78;;;7.50;83.56
41078;BME280;26823;42.662;23.352;2023-05-11T02:18:18;94994.78;;;7.47;82.43
41078;BME280;26823;42.662;23.352;2023-05-11T02:20:45;94993.38;;;7.39;82.64
41078;BME280;26823;42.662;23.352;2023-05-11T02:23:12;94984.09;;;7.25;83.26
41078;BME280;26823;42.662;23.352;2023-05-11T02:25:38;95000.44;;;7.45;83.52
41078;BME280;26823;42.662;23.352;2023-05-11T02:28:05;94995.78;;;7.41;82.85
41078;BME280;26823;42.662;23.352;2023-05-11T02:30:31;95002.84;;;7.47;83.08
41078;BME280;26823;42.662;23.352;2023-05-11T02:33:05;95004.44;;;7.43;82.77
41078;BME280;26823;42.662;23.352;2023-05-11T02:35:36;94992.91;;;7.47;82.48
41078;BME280;26823;42.662;23.352;2023-05-11T02:38:04;95004.78;;;7.51;81.65
41078;BME280;26823;42.662;23.352;2023-05-11T02:40:32;94987.19;;;7.39;81.98
41078;BME280;26823;42.662;23.352;2023-05-11T02:43:02;94992.34;;;7.45;82.45
41078;BME280;26823;42.662;23.352;2023-05-11T02:45:30;95006.66;;;7.51;81.77
41078;BME280;26823;42.662;23.352;2023-05-11T02:47:59;95005.59;;;7.52;81.45
41078;BME280;26823;42.662;23.352;2023-05-11T02:50:26;94978.81;;;7.35;81.26
41078;BME280;26823;42.662;23.352;2023-05-11T02:52:56;95001.00;;;7.47;82.35
41078;BME280;26823;42.662;23.352;2023-05-11T02:55:22;94989.03;;;7.38;82.36
41078;BME280;26823;42.662;23.352;2023-05-11T02:57:48;94992.66;;;7.22;82.72
41078;BME280;26823;42.662;23.352;2023-05-11T03:00:14;94993.75;;;7.26;82.58
41078;BME280;26823;42.662;23.352;2023-05-11T03:02:42;94997.72;;;7.18;83.12
41078;BME280;26823;42.662;23.352;2023-05-11T03:05:07;94990.41;;;7.13;83.68
41078;BME280;26823;42.662;23.352;2023-05-11T03:07:33;94998.72;;;7.12;83.49
41078;BME280;26823;42.662;23.352;2023-05-11T03:10:00;94989.91;;;7.16;84.35
41078;BME280;26823;42.662;23.352;2023-05-11T03:12:26;94973.91;;;7.05;83.73
41078;BME280;26823;42.662;23.352;2023-05-11T03:14:57;94987.88;;;7.29;83.56
41078;BME280;26823;42.662;23.352;2023-05-11T03:17:22;94993.91;;;7.14;84.33
41078;BME280;26823;42.662;23.352;2023-05-11T03:19:50;94988.59;;;7.19;83.80
41078;BME280;26823;42.662;23.352;2023-05-11T03:22:15;94994.00;;;7.24;84.19
41078;BME280;26823;42.662;23.352;2023-05-11T03:24:41;94973.13;;;7.09;84.46
41078;BME280;26823;42.662;23.352;2023-05-11T03:27:07;94985.34;;;7.17;84.29
41078;BME280;26823;42.662;23.352;2023-05-11T03:29:35;94993.97;;;7.19;84.03
41078;BME280;26823;42.662;23.352;2023-05-11T03:32:03;95000.75;;;7.27;83.96
41078;BME280;26823;42.662;23.352;2023-05-11T03:34:35;95013.16;;;7.28;84.36
41078;BME280;26823;42.662;23.352;2023-05-11T03:37:01;94996.38;;;7.21;83.56
41078;BME280;26823;42.662;23.352;2023-05-11T03:39:28;95000.72;;;7.22;83.34
41078;BME280;26823;42.662;23.352;2023-05-11T03:41:55;95005.63;;;7.02;83.70
41078;BME280;26823;42.662;23.352;2023-05-11T03:44:23;94999.97;;;7.04;84.41
41078;BME280;26823;42.662;23.352;2023-05-11T03:46:51;94992.69;;;6.99;84.26
41078;BME280;26823;42.662;23.352;2023-05-11T03:49:17;95004.25;;;7.00;83.96
41078;BME280;26823;42.662;23.352;2023-05-11T03:51:43;95007.06;;;6.88;85.01
41078;BME280;26823;42.662;23.352;2023-05-11T03:54:10;95014.19;;;6.99;85.12
41078;BME280;26823;42.662;23.352;2023-05-11T03:56:38;95019.19;;;7.13;85.21
41078;BME280;26823;42.662;23.352;2023-05-11T03:59:04;95018.56;;;7.06;85.52
41078;BME280;26823;42.662;23.352;2023-05-11T04:01:31;95022.31;;;7.05;85.63
41078;BME280;26823;42.662;23.352;2023-05-11T04:03:57;95017.19;;;7.03;85.46
41078;BME280;26823;42.662;23.352;2023-05-11T04:06:22;95023.91;;;7.00;86.32
41078;BME280;26823;42.662;23.352;2023-05-11T04:08:48;95016.00;;;6.94;86.46
41078;BME280;26823;42.662;23.352;2023-05-11T04:11:13;95020.00;;;6.91;86.86
41078;BME280;26823;42.662;23.352;2023-05-11T04:13:39;95012.31;;;6.78;87.43
41078;BME280;26823;42.662;23.352;2023-05-11T04:16:10;95027.88;;;6.98;86.91
41078;BME280;26823;42.662;23.352;2023-05-11T04:18:36;95019.75;;;6.93;87.90
41078;BME280;26823;42.662;23.352;2023-05-11T04:21:01;95029.81;;;7.02;87.59
41078;BME280;26823;42.662;23.352;2023-05-11T04:23:26;94997.56;;;6.80;88.01
41078;BME280;26823;42.662;23.352;2023-05-11T04:25:53;95023.81;;;6.95;88.20
41078;BME280;26823;42.662;23.352;2023-05-11T04:28:19;95024.69;;;7.01;88.09
41078;BME280;26823;42.662;23.352;2023-05-11T04:30:51;95016.69;;;6.84;88.71
41078;BME280;26823;42.662;23.352;2023-05-11T04:33:17;95029.97;;;6.91;88.58
41078;BME280;26823;42.662;23.352;2023-05-11T04:35:42;95030.38;;;6.82;90.15
41078;BME280;26823;42.662;23.352;2023-05-11T04:38:08;95030.22;;;6.89;89.52
41078;BME280;26823;42.662;23.352;2023-05-11T04:40:34;95036.06;;;6.86;90.59
41078;BME280;26823;42.662;23.352;2023-05-11T04:43:00;95041.69;;;6.84;90.48
41078;BME280;26823;42.662;23.352;2023-05-11T04:45:25;95040.97;;;6.89;90.32
41078;BME280;26823;42.662;23.352;2023-05-11T04:47:51;95037.81;;;6.97;89.23
41078;BME280;26823;42.662;23.352;2023-05-11T04:50:16;95028.69;;;6.76;90.70
41078;BME280;26823;42.662;23.352;2023-05-11T04:52:42;95040.13;;;6.89;91.24
41078;BME280;26823;42.662;23.352;2023-05-11T04:55:07;95033.13;;;6.88;91.04
41078;BME280;26823;42.662;23.352;2023-05-11T04:57:33;95037.88;;;7.02;90.15
41078;BME280;26823;42.662;23.352;2023-05-11T04:59:58;95037.81;;;6.97;90.07
41078;BME280;26823;42.662;23.352;2023-05-11T05:02:24;95044.16;;;7.08;89.75
41078;BME280;26823;42.662;23.352;2023-05-11T05:04:50;95041.91;;;7.00;90.21
41078;BME280;26823;42.662;23.352;2023-05-11T05:07:15;95045.97;;;7.02;90.38
41078;BME280;26823;42.662;23.352;2023-05-11T05:09:41;95049.53;;;7.08;90.18
41078;BME280;26823;42.662;23.352;2023-05-11T05:12:06;95053.59;;;7.11;89.94
41078;BME280;26823;42.662;23.352;2023-05-11T05:14:31;95049.81;;;7.12;90.19
41078;BME280;26823;42.662;23.352;2023-05-11T05:16:57;95061.47;;;7.17;89.96
41078;BME280;26823;42.662;23.352;2023-05-11T05:19:24;95044.88;;;6.81;90.78
41078;BME280;26823;42.662;23.352;2023-05-11T05:21:50;95062.84;;;6.98;90.27
41078;BME280;26823;42.662;23.352;2023-05-11T05:24:15;95060.84;;;7.10;90.78
41078;BME280;26823;42.662;23.352;2023-05-11T05:26:41;95054.47;;;7.16;90.50
41078;BME280;26823;42.662;23.352;2023-05-11T05:29:06;95060.09;;;7.15;90.32
41078;BME280;26823;42.662;23.352;2023-05-11T05:31:32;95057.16;;;7.39;89.87
41078;BME280;26823;42.662;23.352;2023-05-11T05:33:57;95057.53;;;7.25;89.50
41078;BME280;26823;42.662;23.352;2023-05-11T05:36:22;95063.78;;;7.31;89.79
41078;BME280;26823;42.662;23.352;2023-05-11T05:38:48;95054.75;;;6.98;90.96
41078;BME280;26823;42.662;23.352;2023-05-11T05:41:13;95061.78;;;6.99;91.13
41078;BME280;26823;42.662;23.352;2023-05-11T05:43:39;95053.19;;;6.80;91.95
41078;BME280;26823;42.662;23.352;2023-05-11T05:46:04;95073.97;;;7.07;91.62
41078;BME280;26823;42.662;23.352;2023-05-11T05:48:30;95060.22;;;7.03;91.39
41078;BME280;26823;42.662;23.352;2023-05-11T05:50:56;95042.19;;;6.81;91.71
41078;BME280;26823;42.662;23.352;2023-05-11T05:53:21;95068.38;;;7.08;91.28
41078;BME280;26823;42.662;23.352;2023-05-11T05:55:47;95075.28;;;7.04;90.97
41078;BME280;26823;42.662;23.352;2023-05-11T05:58:12;95077.88;;;7.16;90.34
41078;BME280;26823;42.662;23.352;2023-05-11T06:00:38;95080.44;;;7.06;91.21
41078;BME280;26823;42.662;23.352;2023-05-11T06:03:03;95073.38;;;6.99;90.42
41078;BME280;26823;42.662;23.352;2023-05-11T06:05:28;95065.34;;;7.05;89.81
41078;BME280;26823;42.662;23.352;2023-05-11T06:07:54;95075.16;;;6.94;90.79
41078;BME280;26823;42.662;23.352;2023-05-11T06:10:19;95090.63;;;7.04;90.21
41078;BME280;26823;42.662;23.352;2023-05-11T06:12:45;95084.00;;;7.11;89.15
41078;BME280;26823;42.662;23.352;2023-05-11T06:15:11;95085.31;;;7.09;88.99
41078;BME280;26823;42.662;23.352;2023-05-11T06:17:36;95079.59;;;7.05;89.04
41078;BME280;26823;42.662;23.352;2023-05-11T06:20:01;95080.66;;;7.04;89.99
41078;BME280;26823;42.662;23.352;2023-05-11T06:22:27;95095.56;;;7.12;89.89
41078;BME280;26823;42.662;23.352;2023-05-11T06:24:52;95076.78;;;6.95;90.38
41078;BME280;26823;42.662;23.352;2023-05-11T06:27:18;95089.94;;;7.13;89.71
41078;BME280;26823;42.662;23.352;2023-05-11T06:29:43;95100.16;;;7.33;89.40
41078;BME280;26823;42.662;23.352;2023-05-11T06:32:08;95104.06;;;7.26;89.48
41078;BME280;26823;42.662;23.352;2023-05-11T06:34:34;95095.94;;;6.98;90.35
41078;BME280;26823;42.662;23.352;2023-05-11T06:36:59;95115.47;;;7.11;89.92
41078;BME280;26823;42.662;23.352;2023-05-11T06:39:25;95097.81;;;7.20;89.40
41078;BME280;26823;42.662;23.352;2023-05-11T06:41:51;95109.88;;;7.40;89.41
41078;BME280;26823;42.662;23.352;2023-05-11T06:44:17;95105.63;;;7.22;89.33
41078;BME280;26823;42.662;23.352;2023-05-11T06:46:42;95079.53;;;7.00;90.36
41078;BME280;26823;42.662;23.352;2023-05-11T06:49:08;95085.56;;;7.07;90.20
41078;BME280;26823;42.662;23.352;2023-05-11T06:51:33;95108.66;;;7.25;89.30
41078;BME280;26823;42.662;23.352;2023-05-11T06:53:58;95090.56;;;7.21;89.69
41078;BME280;26823;42.662;23.352;2023-05-11T06:56:24;95102.16;;;7.21;89.96
41078;BME280;26823;42.662;23.352;2023-05-11T06:58:49;95110.03;;;7.50;88.14
41078;BME280;26823;42.662;23.352;2023-05-11T07:01:14;95103.75;;;7.66;88.55
41078;BME280;26823;42.662;23.352;2023-05-11T07:03:40;95113.56;;;7.56;86.92
41078;BME280;26823;42.662;23.352;2023-05-11T07:06:06;95107.28;;;7.72;87.82
41078;BME280;26823;42.662;23.352;2023-05-11T07:08:31;95117.75;;;7.68;86.52
41078;BME280;26823;42.662;23.352;2023-05-11T07:10:58;95112.16;;;7.48;87.62
41078;BME280;26823;42.662;23.352;2023-05-11T07:13:23;95101.53;;;7.86;86.84
41078;BME280;26823;42.662;23.352;2023-05-11T07:15:49;95102.41;;;7.96;85.93
41078;BME280;26823;42.662;23.352;2023-05-11T07:18:14;95096.09;;;7.80;85.86
41078;BME280;26823;42.662;23.352;2023-05-11T07:20:40;95103.44;;;7.90;85.42
41078;BME280;26823;42.662;23.352;2023-05-11T07:23:05;95091.34;;;7.93;84.87
41078;BME280;26823;42.662;23.352;2023-05-11T07:25:31;95102.66;;;7.67;85.94
41078;BME280;26823;42.662;23.352;2023-05-11T07:27:56;95114.50;;;7.66;85.38
41078;BME280;26823;42.662;23.352;2023-05-11T07:30:22;95123.28;;;7.84;84.78
41078;BME280;26823;42.662;23.352;2023-05-11T07:32:48;95122.28;;;7.90;84.63
41078;BME280;26823;42.662;23.352;2023-05-11T07:35:14;95117.03;;;8.33;83.41
41078;BME280;26823;42.662;23.352;2023-05-11T07:37:40;95117.44;;;8.47;81.85
41078;BME280;26823;42.662;23.352;2023-05-11T07:40:06;95106.75;;;8.62;81.15
41078;BME280;26823;42.662;23.352;2023-05-11T07:42:32;95114.34;;;8.65;80.14
41078;BME280;26823;42.662;23.352;2023-05-11T07:44:57;95106.44;;;8.54;80.30
41078;BME280;26823;42.662;23.352;2023-05-11T07:47:23;95112.91;;;8.53;79.11
41078;BME280;26823;42.662;23.352;2023-05-11T07:49:49;95113.16;;;8.51;80.72
41078;BME280;26823;42.662;23.352;2023-05-11T07:52:15;95110.28;;;8.63;79.94
41078;BME280;26823;42.662;23.352;2023-05-11T07:54:40;95113.31;;;9.14;78.69
41078;BME280;26823;42.662;23.352;2023-05-11T07:57:06;95113.66;;;9.28;76.71
41078;BME280;26823;42.662;23.352;2023-05-11T07:59:31;95107.59;;;9.06;76.70
41078;BME280;26823;42.662;23.352;2023-05-11T08:01:57;95121.50;;;9.35;75.34
41078;BME280;26823;42.662;23.352;2023-05-11T08:04:22;95115.16;;;9.09;75.15
41078;BME280;26823;42.662;23.352;2023-05-11T08:06:48;95115.81;;;9.32;74.68
41078;BME280;26823;42.662;23.352;2023-05-11T08:09:14;95113.34;;;9.25;74.57
41078;BME280;26823;42.662;23.352;2023-05-11T08:11:40;95109.69;;;9.52;74.26
41078;BME280;26823;42.662;23.352;2023-05-11T08:14:20;95114.38;;;9.82;73.54
41078;BME280;26823;42.662;23.352;2023-05-11T08:16:52;95102.38;;;9.47;72.13
41078;BME280;26823;42.662;23.352;2023-05-11T08:19:18;95114.47;;;9.34;73.03
41078;BME280;26823;42.662;23.352;2023-05-11T08:21:43;95120.69;;;9.40;72.60
41078;BME280;26823;42.662;23.352;2023-05-11T08:24:11;95118.94;;;9.76;71.98
41078;BME280;26823;42.662;23.352;2023-05-11T08:26:36;95113.91;;;10.11;70.31
41078;BME280;26823;42.662;23.352;2023-05-11T08:29:02;95121.16;;;10.05;70.24
41078;BME280;26823;42.662;23.352;2023-05-11T08:31:28;95111.50;;;10.56;67.41
41078;BME280;26823;42.662;23.352;2023-05-11T08:33:54;95109.88;;;10.50;67.61
41078;BME280;26823;42.662;23.352;2023-05-11T08:36:19;95096.63;;;10.17;68.01
41078;BME280;26823;42.662;23.352;2023-05-11T08:38:45;95090.94;;;10.70;67.81
41078;BME280;26823;42.662;23.352;2023-05-11T08:41:11;95122.88;;;10.63;65.77
41078;BME280;26823;42.662;23.352;2023-05-11T08:43:38;95110.53;;;9.62;69.79
41078;BME280;26823;42.662;23.352;2023-05-11T08:46:05;95115.75;;;9.90;69.38
41078;BME280;26823;42.662;23.352;2023-05-11T08:48:33;95110.31;;;9.74;69.43
41078;BME280;26823;42.662;23.352;2023-05-11T08:50:59;95090.75;;;9.41;70.85
41078;BME280;26823;42.662;23.352;2023-05-11T08:53:26;95104.56;;;9.55;69.85
41078;BME280;26823;42.662;23.352;2023-05-11T08:55:54;95103.00;;;9.80;69.53
41078;BME280;26823;42.662;23.352;2023-05-11T08:58:19;95098.31;;;9.50;70.56
41078;BME280;26823;42.662;23.352;2023-05-11T09:00:49;95107.16;;;9.35;71.84
41078;BME280;26823;42.662;23.352;2023-05-11T09:03:17;95101.72;;;9.19;72.93
41078;BME280;26823;42.662;23.352;2023-05-11T09:05:47;95099.63;;;9.37;73.15
41078;BME280;26823;42.662;23.352;2023-05-11T09:08:14;95104.13;;;9.21;74.27
41078;BME280;26823;42.662;23.352;2023-05-11T09:10:42;95106.34;;;9.29;74.64
41078;BME280;26823;42.662;23.352;2023-05-11T09:13:08;95094.38;;;9.09;75.14
41078;BME280;26823;42.662;23.352;2023-05-11T09:15:34;95040.41;;;9.09;74.59
41078;BME280;26823;42.662;23.352;2023-05-11T09:17:59;95081.28;;;9.39;74.80
41078;BME280;26823;42.662;23.352;2023-05-11T09:20:27;95092.22;;;9.95;74.42
41078;BME280;26823;42.662;23.352;2023-05-11T09:22:54;95109.56;;;10.15;73.25
41078;BME280;26823;42.662;23.352;2023-05-11T09:25:21;95102.78;;;9.97;73.80
41078;BME280;26823;42.662;23.352;2023-05-11T09:27:46;95108.50;;;9.27;74.65
41078;BME280;26823;42.662;23.352;2023-05-11T09:30:16;95103.38;;;9.25;75.88
41078;BME280;26823;42.662;23.352;2023-05-11T09:32:46;95093.38;;;9.26;76.10
41078;BME280;26823;42.662;23.352;2023-05-11T09:35:28;95102.13;;;9.54;75.46
41078;BME280;26823;42.662;23.352;2023-05-11T09:40:29;95094.59;;;9.03;76.89
41078;BME280;26823;42.662;23.352;2023-05-11T09:42:55;95092.94;;;8.91;77.63
41078;BME280;26823;42.662;23.352;2023-05-11T09:45:44;95102.22;;;9.11;77.87
41078;BME280;26823;42.662;23.352;2023-05-11T09:48:24;95072.56;;;8.68;78.16
41078;BME280;26823;42.662;23.352;2023-05-11T09:50:51;95074.16;;;8.64;78.43
41078;BME280;26823;42.662;23.352;2023-05-11T09:53:33;95092.22;;;9.11;78.31
41078;BME280;26823;42.662;23.352;2023-05-11T09:55:59;95084.31;;;9.48;77.77
41078;BME280;26823;42.662;23.352;2023-05-11T09:58:25;95084.06;;;8.96;78.31
41078;BME280;26823;42.662;23.352;2023-05-11T10:00:51;95082.44;;;8.95;78.92
41078;BME280;26823;42.662;23.352;2023-05-11T10:03:24;95075.69;;;8.97;77.77
41078;BME280;26823;42.662;23.352;2023-05-11T10:05:58;95070.94;;;9.20;77.22
41078;BME280;26823;42.662;23.352;2023-05-11T10:08:28;95069.94;;;9.42;76.77
41078;BME280;26823;42.662;23.352;2023-05-11T10:11:03;95072.94;;;9.40;76.98
41078;BME280;26823;42.662;23.352;2023-05-11T10:13:31;95074.06;;;9.60;75.72
41078;BME280;26823;42.662;23.352;2023-05-11T10:15:58;95072.81;;;10.04;74.81
41078;BME280;26823;42.662;23.352;2023-05-11T10:18:26;95062.00;;;10.09;74.38
41078;BME280;26823;42.662;23.352;2023-05-11T10:20:52;95058.25;;;10.56;71.68
41078;BME280;26823;42.662;23.352;2023-05-11T10:23:18;95070.38;;;10.80;70.62
41078;BME280;26823;42.662;23.352;2023-05-11T10:25:45;95068.25;;;10.56;71.61
41078;BME280;26823;42.662;23.352;2023-05-11T10:28:12;95053.34;;;10.69;70.16
41078;BME280;26823;42.662;23.352;2023-05-11T10:30:37;95069.19;;;11.17;68.26
41078;BME280;26823;42.662;23.352;2023-05-11T10:33:05;95070.31;;;11.00;68.75
41078;BME280;26823;42.662;23.352;2023-05-11T10:35:31;95060.63;;;10.06;71.29
41078;BME280;26823;42.662;23.352;2023-05-11T10:37:57;95053.91;;;10.55;70.38
41078;BME280;26823;42.662;23.352;2023-05-11T10:40:23;95039.03;;;10.58;70.01
41078;BME280;26823;42.662;23.352;2023-05-11T10:48:31;95051.94;;;10.97;67.25
41078;BME280;26823;42.662;23.352;2023-05-11T11:01:58;95035.19;;;10.80;69.88
41078;BME280;26823;42.662;23.352;2023-05-11T11:04:40;95048.16;;;10.88;67.77
41078;BME280;26823;42.662;23.352;2023-05-11T11:07:06;95040.50;;;11.16;66.37
41078;BME280;26823;42.662;23.352;2023-05-11T11:10:01;95052.91;;;11.27;65.89
41078;BME280;26823;42.662;23.352;2023-05-11T11:12:31;95047.56;;;11.06;66.61
41078;BME280;26823;42.662;23.352;2023-05-11T11:15:05;95048.91;;;11.14;67.54
41078;BME280;26823;42.662;23.352;2023-05-11T11:17:39;95035.75;;;10.87;68.55
41078;BME280;26823;42.662;23.352;2023-05-11T11:20:07;95015.44;;;10.74;68.44
41078;BME280;26823;42.662;23.352;2023-05-11T11:25:48;95005.75;;;10.63;67.05
41078;BME280;26823;42.662;23.352;2023-05-11T11:27:54;95050.81;;;10.98;68.52
41078;BME280;26823;42.662;23.352;2023-05-11T11:30:35;95022.13;;;11.07;67.82
41078;BME280;26823;42.662;23.352;2023-05-11T11:38:18;95041.25;;;11.82;65.27
41078;BME280;26823;42.662;23.352;2023-05-11T11:40:48;95045.41;;;12.48;61.70
41078;BME280;26823;42.662;23.352;2023-05-11T11:43:24;95039.63;;;12.26;62.07
41078;BME280;26823;42.662;23.352;2023-05-11T11:46:02;95026.78;;;11.57;64.54
41078;BME280;26823;42.662;23.352;2023-05-11T11:48:28;95036.41;;;11.79;64.68
41078;BME280;26823;42.662;23.352;2023-05-11T11:58:58;95033.25;;;11.61;65.22
41078;BME280;26823;42.662;23.352;2023-05-11T12:01:33;95031.13;;;11.58;66.37
41078;BME280;26823;42.662;23.352;2023-05-11T12:09:37;94976.69;;;10.99;66.11
41078;BME280;26823;42.662;23.352;2023-05-11T12:12:03;95019.03;;;11.35;65.67
41078;BME280;26823;42.662;23.352;2023-05-11T12:14:30;95025.56;;;11.23;65.68
41078;BME280;26823;42.662;23.352;2023-05-11T12:17:04;95027.53;;;11.07;67.36
41078;BME280;26823;42.662;23.352;2023-05-11T12:19:32;95017.56;;;10.92;68.23
41078;BME280;26823;42.662;23.352;2023-05-11T12:21:57;95018.53;;;11.28;67.81
41078;BME280;26823;42.662;23.352;2023-05-11T12:24:23;95018.91;;;10.95;68.49
41078;BME280;26823;42.662;23.352;2023-05-11T12:26:48;94992.88;;;11.09;68.58
41078;BME280;26823;42.662;23.352;2023-05-11T12:29:14;95019.88;;;11.30;67.57
41078;BME280;26823;42.662;23.352;2023-05-11T12:31:44;95006.50;;;10.89;68.24
41078;BME280;26823;42.662;23.352;2023-05-11T12:34:14;95008.81;;;11.21;67.40
41078;BME280;26823;42.662;23.352;2023-05-11T12:36:40;94994.16;;;11.28;66.13
41078;BME280;26823;42.662;23.352;2023-05-11T12:39:06;94999.25;;;11.34;66.65
41078;BME280;26823;42.662;23.352;2023-05-11T12:41:32;94973.97;;;11.54;65.96
41078;BME280;26823;42.662;23.352;2023-05-11T12:43:57;94981.06;;;11.45;65.59
41078;BME280;26823;42.662;23.352;2023-05-11T12:46:23;94986.06;;;11.22;65.87
41078;BME280;26823;42.662;23.352;2023-05-11T12:48:49;94991.50;;;11.17;66.10
41078;BME280;26823;42.662;23.352;2023-05-11T12:51:41;94990.63;;;11.27;65.47
41078;BME280;26823;42.662;23.352;2023-05-11T12:54:06;94981.25;;;11.09;66.12
41078;BME280;26823;42.662;23.352;2023-05-11T12:56:46;94972.09;;;11.00;66.39
41078;BME280;26823;42.662;23.352;2023-05-11T13:02:16;94946.81;;;10.54;67.84
41078;BME280;26823;42.662;23.352;2023-05-11T13:04:43;94979.47;;;10.79;67.32
41078;BME280;26823;42.662;23.352;2023-05-11T13:07:10;94971.81;;;11.01;66.91
41078;BME280;26823;42.662;23.352;2023-05-11T13:09:36;94965.56;;;11.11;66.85
41078;BME280;26823;42.662;23.352;2023-05-11T13:12:17;94972.75;;;11.31;65.52
41078;BME280;26823;42.662;23.352;2023-05-11T13:14:47;94959.34;;;11.05;66.12
41078;BME280;26823;42.662;23.352;2023-05-11T13:17:34;94969.53;;;11.24;65.89
41078;BME280;26823;42.662;23.352;2023-05-11T13:20:18;94972.19;;;11.34;66.09
41078;BME280;26823;42.662;23.352;2023-05-11T13:22:45;94965.25;;;11.13;66.91
41078;BME280;26823;42.662;23.352;2023-05-11T13:25:12;94954.97;;;11.15;66.30
41078;BME280;26823;42.662;23.352;2023-05-11T13:27:38;94965.66;;;11.40;66.02
41078;BME280;26823;42.662;23.352;2023-05-11T13:30:04;94961.38;;;11.29;65.97
41078;BME280;26823;42.662;23.352;2023-05-11T13:32:29;94955.56;;;11.01;66.75
41078;BME280;26823;42.662;23.352;2023-05-11T13:34:55;94958.81;;;11.03;66.94
41078;BME280;26823;42.662;23.352;2023-05-11T13:37:20;94961.72;;;11.17;66.91
41078;BME280;26823;42.662;23.352;2023-05-11T13:39:46;94950.25;;;11.36;66.20
41078;BME280;26823;42.662;23.352;2023-05-11T13:42:11;94952.91;;;11.41;65.91
41078;BME280;26823;42.662;23.352;2023-05-11T13:44:37;94931.38;;;11.20;66.84
41078;BME280;26823;42.662;23.352;2023-05-11T13:47:02;94953.41;;;11.48;66.11
41078;BME280;26823;42.662;23.352;2023-05-11T13:49:28;94958.94;;;11.33;66.89
41078;BME280;26823;42.662;23.352;2023-05-11T13:51:53;94966.16;;;11.48;65.79